Time;durP1;ratioP1;P1;durP2;ratioP2;P2;SDS_P1;SDS_P2;PMS_P1;PMS_P2;Temp;Humidity;BMP_temperature;BMP_pressure;BME280_temperature;BME280_humidity;BME280_pressure;Samples;Min_cycle;Max_cycle;Signal;HPM_P1;HPM_P2
2023/12/01 00:00:03;;;;;;;;;;;;;;;16.91;44.56;98349.34;10332260;28;902;-71
2023/12/01 00:04:58;;;;;;;;;;;;;;;16.92;44.44;98347.56;10332008;28;1889;-71
2023/12/01 00:09:54;;;;;;;;;;;;;;;16.91;44.58;98348.50;10331770;28;901;-71
2023/12/01 00:14:50;;;;;;;;;;;;;;;16.86;44.47;98347.00;10332335;28;875;-71
2023/12/01 00:19:47;;;;;;;;;;;;;;;16.91;44.56;98359.03;10331566;28;823;-71
2023/12/01 00:24:42;;;;;;;;;;;;;;;16.89;44.48;98355.66;10331770;28;1965;-72
2023/12/01 00:29:38;;;;;;;;;;;;;;;16.85;44.58;98362.91;10331066;28;833;-71
2023/12/01 00:34:34;;;;;;;;;;;;;;;16.86;44.50;98356.69;10330974;28;1314;-71
2023/12/01 00:39:30;;;;;;;;;;;;;;;16.89;44.51;98363.53;10331203;28;895;-71
2023/12/01 00:44:26;;;;;;;;;;;;;;;16.87;44.48;98368.88;10331210;28;1918;-71
2023/12/01 00:49:22;;;;;;;;;;;;;;;16.86;44.47;98383.00;10329884;28;883;-71
2023/12/01 00:54:19;;;;;;;;;;;;;;;16.90;44.55;98381.00;10329703;28;969;-70
2023/12/01 00:59:15;;;;;;;;;;;;;;;16.85;44.51;98384.78;10330422;28;855;-71
2023/12/01 01:04:11;;;;;;;;;;;;;;;16.85;44.62;98394.47;10329483;28;1965;-71
2023/12/01 01:09:07;;;;;;;;;;;;;;;16.84;44.60;98396.25;10329746;28;878;-71
2023/12/01 01:14:03;;;;;;;;;;;;;;;16.85;44.56;98399.75;10329613;28;778;-71
2023/12/01 01:18:59;;;;;;;;;;;;;;;16.80;44.72;98396.53;10329945;28;794;-71
2023/12/01 01:23:55;;;;;;;;;;;;;;;16.81;44.45;98401.69;10328570;28;1906;-71
2023/12/01 01:28:51;;;;;;;;;;;;;;;16.84;44.47;98403.28;10329230;28;772;-71
2023/12/01 01:33:47;;;;;;;;;;;;;;;16.79;44.62;98402.72;10328818;28;1093;-71
2023/12/01 01:38:43;;;;;;;;;;;;;;;16.79;44.69;98407.97;10328018;28;864;-71
2023/12/01 01:43:39;;;;;;;;;;;;;;;16.83;44.53;98406.88;10328295;28;1913;-71
2023/12/01 01:48:35;;;;;;;;;;;;;;;16.78;44.57;98396.63;10327425;28;858;-71
2023/12/01 01:53:30;;;;;;;;;;;;;;;16.76;44.57;98395.81;10328514;28;819;-71
2023/12/01 01:58:26;;;;;;;;;;;;;;;16.80;44.67;98405.28;10327628;28;852;-71
2023/12/01 02:03:23;;;;;;;;;;;;;;;16.79;44.55;98415.88;10328082;28;1893;-71
2023/12/01 02:08:19;;;;;;;;;;;;;;;16.75;44.61;98407.31;10328206;28;812;-71
2023/12/01 02:13:15;;;;;;;;;;;;;;;16.78;44.52;98411.56;10327917;28;822;-71
2023/12/01 02:18:11;;;;;;;;;;;;;;;16.77;44.47;98410.72;10326324;28;1075;-71
2023/12/01 02:23:07;;;;;;;;;;;;;;;16.74;44.52;98416.16;10327288;28;1955;-70
2023/12/01 02:28:03;;;;;;;;;;;;;;;16.75;44.54;98411.72;10327048;28;884;-71
2023/12/01 02:32:59;;;;;;;;;;;;;;;16.77;44.49;98416.00;10326899;28;1164;-71
2023/12/01 02:37:55;;;;;;;;;;;;;;;16.74;44.63;98425.81;10326904;28;803;-71
2023/12/01 02:42:51;;;;;;;;;;;;;;;16.73;44.60;98427.59;10326397;28;1922;-70
2023/12/01 02:47:50;;;;;;;;;;;;;;;16.80;44.44;98428.13;10325948;28;957;-71
2023/12/01 02:52:46;;;;;;;;;;;;;;;16.73;44.71;98429.38;10326971;28;928;-71
2023/12/01 02:57:41;;;;;;;;;;;;;;;16.70;44.59;98429.56;10325636;28;921;-71
2023/12/01 03:02:37;;;;;;;;;;;;;;;16.73;44.52;98430.22;10325737;28;1963;-71
2023/12/01 03:07:33;;;;;;;;;;;;;;;16.72;44.53;98430.34;10325510;28;869;-71
2023/12/01 03:12:29;;;;;;;;;;;;;;;16.70;44.68;98430.41;10326014;28;865;-71
2023/12/01 03:17:25;;;;;;;;;;;;;;;16.73;44.48;98432.00;10326274;28;834;-71
2023/12/01 03:22:21;;;;;;;;;;;;;;;16.73;44.50;98424.13;10325818;28;1902;-71
2023/12/01 03:27:17;;;;;;;;;;;;;;;16.68;44.58;98424.38;10325158;28;758;-71
2023/12/01 03:32:15;;;;;;;;;;;;;;;16.71;44.50;98436.50;10325475;28;929;-70
2023/12/01 03:37:10;;;;;;;;;;;;;;;16.74;44.65;98437.19;10324477;28;1436;-70
2023/12/01 03:42:09;;;;;;;;;;;;;;;16.70;44.64;98443.56;10324732;28;1981;-71
2023/12/01 03:47:05;;;;;;;;;;;;;;;16.68;44.70;98429.66;10325838;28;876;-70
2023/12/01 03:52:01;;;;;;;;;;;;;;;16.72;44.58;98439.06;10324668;28;879;-71
2023/12/01 03:56:57;;;;;;;;;;;;;;;16.68;44.63;98437.53;10325038;28;862;-71
2023/12/01 04:01:53;;;;;;;;;;;;;;;16.68;44.74;98441.97;10324374;28;1961;-71
2023/12/01 04:06:49;;;;;;;;;;;;;;;16.71;44.63;98452.31;10323770;28;1578;-71
2023/12/01 04:11:45;;;;;;;;;;;;;;;16.68;44.56;98461.22;10328807;28;1059;-71
2023/12/01 04:16:41;;;;;;;;;;;;;;;16.66;44.74;98465.72;10331068;28;1271;-71
2023/12/01 04:21:37;;;;;;;;;;;;;;;16.68;44.61;98466.47;10331393;28;1957;-71
2023/12/01 04:26:33;;;;;;;;;;;;;;;16.68;44.75;98461.22;10331405;28;826;-71
2023/12/01 04:31:29;;;;;;;;;;;;;;;16.75;44.35;98474.88;10331088;28;790;-71
2023/12/01 04:36:25;;;;;;;;;;;;;;;16.78;44.45;98485.25;10331892;28;1424;-71
2023/12/01 04:41:20;;;;;;;;;;;;;;;16.76;44.43;98480.03;10330944;28;1918;-71
2023/12/01 04:46:16;;;;;;;;;;;;;;;16.77;44.57;98479.16;10331306;28;939;-71
2023/12/01 04:51:12;;;;;;;;;;;;;;;16.78;44.57;98490.50;10329822;28;1423;-71
2023/12/01 04:56:08;;;;;;;;;;;;;;;16.80;44.34;98489.47;10330147;28;782;-71
2023/12/01 05:01:04;;;;;;;;;;;;;;;16.86;44.24;98489.09;10330082;28;1961;-70
2023/12/01 05:06:00;;;;;;;;;;;;;;;16.87;44.36;98495.22;10329365;28;917;-71
2023/12/01 05:10:56;;;;;;;;;;;;;;;16.84;44.29;98490.13;10330403;28;996;-71
2023/12/01 05:15:53;;;;;;;;;;;;;;;16.90;44.05;98500.31;10329696;28;871;-70
2023/12/01 05:20:48;;;;;;;;;;;;;;;16.92;44.14;98506.31;10327663;28;1979;-71
2023/12/01 05:25:46;;;;;;;;;;;;;;;16.92;44.04;98514.22;10329225;28;747;-70
2023/12/01 05:30:43;;;;;;;;;;;;;;;16.97;44.22;98508.69;10329091;28;814;-71
2023/12/01 05:35:39;;;;;;;;;;;;;;;16.94;44.27;98506.25;10329189;28;1177;-71
2023/12/01 05:40:35;;;;;;;;;;;;;;;16.95;44.04;98514.06;10328480;28;1917;-71
2023/12/01 05:45:35;;;;;;;;;;;;;;;17.02;43.97;98530.31;10328939;28;837;-70
2023/12/01 05:50:31;;;;;;;;;;;;;;;16.95;44.02;98528.97;10328805;28;1029;-72
2023/12/01 05:55:27;;;;;;;;;;;;;;;17.01;43.98;98534.75;10328573;28;819;-72
2023/12/01 06:00:26;;;;;;;;;;;;;;;17.05;44.05;98538.03;10326983;28;1123;-72
2023/12/01 06:05:22;;;;;;;;;;;;;;;17.05;43.92;98535.38;10328126;28;1910;-71
2023/12/01 06:10:18;;;;;;;;;;;;;;;17.14;43.86;98539.28;10327963;28;807;-71
2023/12/01 06:15:14;;;;;;;;;;;;;;;17.12;43.69;98547.25;10327780;28;862;-72
2023/12/01 06:20:19;;;;;;;;;;;;;;;17.17;43.88;98547.00;10328298;28;1616;-71
2023/12/01 06:25:15;;;;;;;;;;;;;;;17.20;43.84;98557.34;10328290;28;1882;-71
2023/12/01 06:30:14;;;;;;;;;;;;;;;17.17;43.93;98568.06;10326494;28;953;-71
2023/12/01 06:35:13;;;;;;;;;;;;;;;17.17;43.95;98574.16;10326215;28;1444;-71
2023/12/01 06:40:12;;;;;;;;;;;;;;;17.16;43.96;98580.38;10325759;28;985;-71
2023/12/01 06:45:07;;;;;;;;;;;;;;;17.07;44.01;98591.44;10326091;28;1914;-74
2023/12/01 06:50:03;;;;;;;;;;;;;;;17.14;44.08;98592.78;10326021;28;966;-71
2023/12/01 06:54:59;;;;;;;;;;;;;;;17.16;43.89;98590.91;10325237;28;894;-71
2023/12/01 06:59:55;;;;;;;;;;;;;;;17.16;43.99;98600.56;10325608;28;946;-73
2023/12/01 07:04:55;;;;;;;;;;;;;;;17.12;44.26;98605.19;10325590;28;1897;-72
2023/12/01 07:09:51;;;;;;;;;;;;;;;17.09;44.30;98611.47;10326126;28;1580;-71
2023/12/01 07:14:48;;;;;;;;;;;;;;;17.03;44.39;98618.91;10322679;28;1038;-71
2023/12/01 07:19:45;;;;;;;;;;;;;;;16.94;44.44;98622.06;10325023;28;974;-71
2023/12/01 07:24:40;;;;;;;;;;;;;;;16.91;44.35;98627.50;10324378;28;1897;-72
2023/12/01 07:29:36;;;;;;;;;;;;;;;16.86;44.68;98628.59;10324863;28;784;-71
2023/12/01 07:34:32;;;;;;;;;;;;;;;16.88;44.48;98638.22;10324356;28;1386;-71
2023/12/01 07:39:28;;;;;;;;;;;;;;;16.90;44.60;98634.56;10324720;28;790;-71
2023/12/01 07:44:24;;;;;;;;;;;;;;;16.89;44.68;98629.34;10325739;28;1971;-72
2023/12/01 07:49:21;;;;;;;;;;;;;;;16.88;44.90;98628.53;10331982;28;890;-69
2023/12/01 07:54:19;;;;;;;;;;;;;;;16.52;45.13;98631.41;10332223;28;910;-68
2023/12/01 07:59:15;;;;;;;;;;;;;;;16.23;45.11;98638.28;10331892;28;902;-68
2023/12/01 08:04:11;;;;;;;;;;;;;;;16.11;43.78;98638.03;10332344;28;1893;-68
2023/12/01 08:09:07;;;;;;;;;;;;;;;16.04;43.31;98648.94;10332255;28;781;-68
2023/12/01 08:14:03;;;;;;;;;;;;;;;15.94;42.96;98640.69;10331400;28;786;-71
2023/12/01 08:18:59;;;;;;;;;;;;;;;16.32;40.75;98643.91;10331269;28;807;-71
2023/12/01 08:23:55;;;;;;;;;;;;;;;16.53;39.81;98652.38;10330945;28;1945;-71
2023/12/01 08:28:50;;;;;;;;;;;;;;;16.62;39.71;98657.13;10331392;28;818;-71
2023/12/01 08:33:46;;;;;;;;;;;;;;;16.72;39.57;98660.09;10330888;28;1306;-71
2023/12/01 08:38:42;;;;;;;;;;;;;;;16.77;39.58;98667.72;10312652;28;1239;-71
2023/12/01 08:43:38;;;;;;;;;;;;;;;16.79;39.64;98673.75;10330362;28;1917;-71
2023/12/01 08:48:34;;;;;;;;;;;;;;;16.85;39.43;98676.06;10330178;28;811;-71
2023/12/01 08:53:30;;;;;;;;;;;;;;;16.83;39.74;98667.41;10330576;28;827;-71
2023/12/01 08:58:27;;;;;;;;;;;;;;;16.88;39.79;98681.16;10329966;28;830;-71
2023/12/01 09:03:22;;;;;;;;;;;;;;;16.91;40.16;98683.63;10329728;28;1894;-72
2023/12/01 09:08:18;;;;;;;;;;;;;;;16.92;40.14;98687.94;10328782;28;917;-72
2023/12/01 09:13:14;;;;;;;;;;;;;;;16.91;40.36;98695.94;10329082;28;1215;-72
2023/12/01 09:18:10;;;;;;;;;;;;;;;16.93;40.59;98691.44;10328937;28;826;-72
2023/12/01 09:23:06;;;;;;;;;;;;;;;16.95;40.50;98695.69;10329111;28;1894;-72
2023/12/01 09:28:02;;;;;;;;;;;;;;;16.98;40.69;98698.13;10328564;28;758;-71
2023/12/01 09:32:58;;;;;;;;;;;;;;;16.95;40.78;98682.50;10328786;28;1447;-72
2023/12/01 09:37:54;;;;;;;;;;;;;;;16.97;40.86;98696.41;10329548;28;830;-72
2023/12/01 09:42:49;;;;;;;;;;;;;;;16.97;40.88;98700.84;10328516;28;1985;-72
2023/12/01 09:47:45;;;;;;;;;;;;;;;16.99;41.03;98720.03;10328329;28;793;-72
2023/12/01 09:52:42;;;;;;;;;;;;;;;17.00;41.05;98721.72;10328960;28;863;-72
2023/12/01 09:57:38;;;;;;;;;;;;;;;16.84;41.40;98719.09;10327861;28;875;-72
2023/12/01 10:02:34;;;;;;;;;;;;;;;16.91;41.33;98725.72;10327206;28;1898;-71
2023/12/01 10:07:30;;;;;;;;;;;;;;;16.99;41.04;98723.50;10327352;28;956;-71
2023/12/01 10:12:25;;;;;;;;;;;;;;;17.00;41.27;98725.22;10327996;28;819;-71
2023/12/01 10:17:21;;;;;;;;;;;;;;;16.99;41.08;98712.13;10327763;28;866;-71
2023/12/01 10:22:17;;;;;;;;;;;;;;;17.03;41.14;98716.31;10326862;28;1969;-71
2023/12/01 10:27:13;;;;;;;;;;;;;;;17.01;41.15;98712.91;10326778;28;791;-71
2023/12/01 10:32:11;;;;;;;;;;;;;;;17.03;41.28;98721.56;10327152;28;822;-71
2023/12/01 10:37:07;;;;;;;;;;;;;;;17.03;41.19;98705.78;10327806;28;1350;-71
2023/12/01 10:42:03;;;;;;;;;;;;;;;17.01;41.36;98703.22;10326928;28;1961;-71
2023/12/01 10:46:59;;;;;;;;;;;;;;;17.04;41.36;98700.41;10326169;28;869;-71
2023/12/01 10:51:55;;;;;;;;;;;;;;;17.04;41.28;98692.50;10326022;28;771;-70
2023/12/01 10:56:52;;;;;;;;;;;;;;;17.04;41.38;98700.41;10326058;28;927;-71
2023/12/01 11:01:49;;;;;;;;;;;;;;;17.06;41.39;98705.59;10326292;28;1951;-71
2023/12/01 11:06:46;;;;;;;;;;;;;;;17.05;41.77;98690.72;10326207;28;1662;-71
2023/12/01 11:11:41;;;;;;;;;;;;;;;17.06;41.53;98684.53;10324880;28;1151;-71
2023/12/01 11:16:37;;;;;;;;;;;;;;;17.08;41.34;98680.00;10325451;28;848;-71
2023/12/01 11:21:33;;;;;;;;;;;;;;;17.05;41.63;98677.56;10324276;28;1953;-71
2023/12/01 11:26:31;;;;;;;;;;;;;;;17.06;41.47;98684.53;10325283;28;949;-71
2023/12/01 11:31:42;;;;;;;;;;;;;;;17.07;41.60;98683.59;10325734;28;939;-71
2023/12/01 11:36:38;;;;;;;;;;;;;;;17.01;41.58;98679.53;10325179;28;1391;-72
2023/12/01 11:41:34;;;;;;;;;;;;;;;16.86;42.15;98683.88;10325414;28;1977;-72
2023/12/01 11:46:30;;;;;;;;;;;;;;;16.80;42.02;98681.59;10325429;28;867;-72
2023/12/01 11:51:26;;;;;;;;;;;;;;;16.88;41.79;98677.69;10325066;28;888;-72
2023/12/01 11:56:22;;;;;;;;;;;;;;;17.02;41.38;98688.25;10324623;28;866;-75
2023/12/01 12:01:18;;;;;;;;;;;;;;;17.03;41.57;98684.72;10324444;28;1894;-71
2023/12/01 12:06:15;;;;;;;;;;;;;;;17.06;41.49;98682.75;10324312;28;969;-72
2023/12/01 12:11:12;;;;;;;;;;;;;;;17.08;41.55;98680.88;10324335;28;853;-71
2023/12/01 12:16:07;;;;;;;;;;;;;;;17.11;41.51;98676.34;10323712;28;781;-71
2023/12/01 12:21:03;;;;;;;;;;;;;;;17.14;41.50;98684.94;10324114;28;1898;-71
2023/12/01 12:25:59;;;;;;;;;;;;;;;17.12;41.62;98683.34;10324033;28;779;-72
2023/12/01 12:30:55;;;;;;;;;;;;;;;17.14;41.65;98690.22;10327091;28;883;-71
2023/12/01 12:35:51;;;;;;;;;;;;;;;17.13;42.03;98691.13;10330959;28;1295;-71
2023/12/01 12:40:47;;;;;;;;;;;;;;;17.13;41.97;98685.84;10331581;28;1914;-71
2023/12/01 12:45:43;;;;;;;;;;;;;;;17.15;41.96;98699.78;10331398;28;934;-71
2023/12/01 12:50:39;;;;;;;;;;;;;;;17.14;42.00;98692.84;10330677;28;936;-70
2023/12/01 12:55:35;;;;;;;;;;;;;;;17.13;41.87;98700.81;10330395;28;875;-71
2023/12/01 13:00:30;;;;;;;;;;;;;;;17.16;41.90;98704.13;10330860;28;913;-71
2023/12/01 13:05:27;;;;;;;;;;;;;;;17.15;41.98;98707.69;10330001;28;1885;-71
2023/12/01 13:10:22;;;;;;;;;;;;;;;17.13;41.99;98704.28;10329941;28;900;-71
2023/12/01 13:15:18;;;;;;;;;;;;;;;17.15;41.89;98707.69;10329677;28;873;-70
2023/12/01 13:20:15;;;;;;;;;;;;;;;17.15;42.04;98705.06;10329549;28;770;-71
2023/12/01 13:25:11;;;;;;;;;;;;;;;17.16;42.06;98704.13;10329210;28;1894;-71
2023/12/01 13:30:08;;;;;;;;;;;;;;;17.16;42.10;98709.41;10329102;28;913;-71
2023/12/01 13:35:04;;;;;;;;;;;;;;;17.17;42.00;98708.47;10328744;28;1447;-70
2023/12/01 13:40:00;;;;;;;;;;;;;;;17.14;42.07;98708.63;10326227;28;1006;-71
2023/12/01 13:44:56;;;;;;;;;;;;;;;17.18;42.09;98715.41;10326565;28;1973;-70
2023/12/01 13:49:52;;;;;;;;;;;;;;;17.19;41.88;98722.41;10328208;28;866;-70
2023/12/01 13:54:47;;;;;;;;;;;;;;;17.19;42.00;98714.50;10328520;28;841;-70
2023/12/01 13:59:43;;;;;;;;;;;;;;;17.20;42.22;98718.81;10327103;28;872;-71
2023/12/01 14:04:39;;;;;;;;;;;;;;;17.19;42.22;98719.75;10327379;28;1889;-71
2023/12/01 14:09:35;;;;;;;;;;;;;;;17.20;42.07;98721.44;10327900;28;967;-71
2023/12/01 14:14:31;;;;;;;;;;;;;;;17.18;42.09;98719.84;10327638;28;786;-71
2023/12/01 14:19:27;;;;;;;;;;;;;;;17.16;42.13;98716.44;10326815;28;1047;-70
2023/12/01 14:24:23;;;;;;;;;;;;;;;17.05;42.71;98725.78;10326564;28;1899;-70
2023/12/01 14:29:19;;;;;;;;;;;;;;;17.00;42.45;98729.63;10326555;28;798;-71
2023/12/01 14:34:15;;;;;;;;;;;;;;;17.05;42.23;98725.78;10327123;28;1160;-70
2023/12/01 14:39:10;;;;;;;;;;;;;;;17.07;42.15;98726.56;10326225;28;775;-71
2023/12/01 14:44:06;;;;;;;;;;;;;;;17.06;42.07;98729.28;10325899;28;1952;-71
2023/12/01 14:49:03;;;;;;;;;;;;;;;17.00;42.11;98727.84;10325849;28;786;-71
2023/12/01 14:53:58;;;;;;;;;;;;;;;16.94;42.38;98738.72;10326536;28;822;-71
2023/12/01 14:58:54;;;;;;;;;;;;;;;16.92;42.47;98740.56;10325675;28;823;-70
2023/12/01 15:03:50;;;;;;;;;;;;;;;16.88;42.45;98746.13;10326297;28;1889;-71
2023/12/01 15:08:46;;;;;;;;;;;;;;;16.90;42.62;98746.84;10325625;28;854;-71
2023/12/01 15:13:42;;;;;;;;;;;;;;;16.89;42.31;98748.66;10326095;28;925;-71
2023/12/01 15:18:38;;;;;;;;;;;;;;;16.95;42.39;98750.97;10326331;28;849;-71
2023/12/01 15:23:34;;;;;;;;;;;;;;;16.97;42.20;98753.47;10325913;28;1898;-71
2023/12/01 15:28:31;;;;;;;;;;;;;;;17.01;42.12;98753.22;10324613;28;928;-71
2023/12/01 15:33:27;;;;;;;;;;;;;;;17.03;42.22;98759.28;10325936;28;1095;-71
2023/12/01 15:38:23;;;;;;;;;;;;;;;17.06;42.07;98763.53;10325031;28;873;-71
2023/12/01 15:43:19;;;;;;;;;;;;;;;17.06;42.22;98763.53;10325474;28;1973;-71
2023/12/01 15:48:15;;;;;;;;;;;;;;;17.07;41.99;98759.94;10325470;28;936;-71
2023/12/01 15:53:11;;;;;;;;;;;;;;;17.11;42.20;98755.34;10325313;28;984;-71
2023/12/01 15:58:07;;;;;;;;;;;;;;;17.10;42.08;98770.28;10323981;28;978;-70
2023/12/01 16:03:05;;;;;;;;;;;;;;;17.06;42.09;98763.53;10324504;28;1898;-71
2023/12/01 16:08:01;;;;;;;;;;;;;;;17.11;42.02;98776.41;10330204;28;832;-73
2023/12/01 16:12:57;;;;;;;;;;;;;;;17.12;42.24;98772.84;10332672;28;867;-71
2023/12/01 16:17:53;;;;;;;;;;;;;;;17.14;42.00;98777.09;10332561;28;854;-72
2023/12/01 16:22:49;;;;;;;;;;;;;;;17.17;42.08;98781.34;10331861;28;1901;-70
2023/12/01 16:27:46;;;;;;;;;;;;;;;17.18;42.23;98789.13;10332096;28;895;-71
2023/12/01 16:32:42;;;;;;;;;;;;;;;17.16;42.17;98783.13;10331109;28;1215;-72
2023/12/01 16:37:38;;;;;;;;;;;;;;;17.19;42.05;98784.75;10331356;28;727;-71
2023/12/01 16:42:34;;;;;;;;;;;;;;;17.22;42.07;98784.56;10330880;28;1975;-70
2023/12/01 16:47:30;;;;;;;;;;;;;;;17.20;42.08;98783.81;10330832;28;839;-71
2023/12/01 16:52:26;;;;;;;;;;;;;;;17.20;42.18;98786.44;10331263;28;927;-71
2023/12/01 16:57:21;;;;;;;;;;;;;;;17.23;42.01;98787.09;10330602;28;865;-70
2023/12/01 17:02:17;;;;;;;;;;;;;;;17.23;42.09;98796.78;10330212;28;1893;-71
2023/12/01 17:07:13;;;;;;;;;;;;;;;17.26;42.40;98800.09;10330814;28;915;-71
2023/12/01 17:12:09;;;;;;;;;;;;;;;17.23;42.25;98802.91;10329943;28;913;-71
2023/12/01 17:17:05;;;;;;;;;;;;;;;17.28;42.29;98810.56;10329706;28;969;-71
2023/12/01 17:22:01;;;;;;;;;;;;;;;17.26;42.17;98810.63;10329421;28;1898;-71
2023/12/01 17:26:57;;;;;;;;;;;;;;;17.29;42.28;98818.38;10329371;28;863;-71
2023/12/01 17:31:53;;;;;;;;;;;;;;;17.28;42.13;98815.81;10329147;28;933;-71
2023/12/01 17:36:48;;;;;;;;;;;;;;;17.27;42.41;98814.97;10329868;28;1109;-71
2023/12/01 17:41:44;;;;;;;;;;;;;;;17.32;42.08;98820.00;10329220;28;1981;-71
2023/12/01 17:46:40;;;;;;;;;;;;;;;17.30;42.29;98813.97;10329118;28;981;-70
2023/12/01 17:51:36;;;;;;;;;;;;;;;17.31;42.16;98816.50;10328304;28;798;-71
2023/12/01 17:56:32;;;;;;;;;;;;;;;17.31;42.09;98813.84;10327503;28;1117;-70
2023/12/01 18:01:28;;;;;;;;;;;;;;;17.30;42.25;98817.44;10327844;28;1959;-71
2023/12/01 18:06:24;;;;;;;;;;;;;;;17.33;42.09;98813.78;10327648;28;887;-70
2023/12/01 18:11:21;;;;;;;;;;;;;;;17.32;42.15;98812.09;10327858;28;858;-71
2023/12/01 18:16:18;;;;;;;;;;;;;;;17.32;42.17;98809.47;10327706;28;806;-71
2023/12/01 18:21:13;;;;;;;;;;;;;;;17.35;42.07;98818.97;10327077;28;1890;-71
2023/12/01 18:26:09;;;;;;;;;;;;;;;17.35;42.21;98821.59;10326896;28;754;-71
2023/12/01 18:31:05;;;;;;;;;;;;;;;17.37;42.03;98830.25;10326082;28;849;-71
2023/12/01 18:36:01;;;;;;;;;;;;;;;17.36;41.96;98824.13;10326912;28;1165;-71
2023/12/01 18:40:57;;;;;;;;;;;;;;;17.35;41.98;98838.25;10326847;28;950;-71
2023/12/01 18:45:54;;;;;;;;;;;;;;;17.36;42.11;98837.31;10326763;28;1902;-71
2023/12/01 18:50:50;;;;;;;;;;;;;;;17.39;41.89;98844.19;10326041;28;952;-71
2023/12/01 18:55:46;;;;;;;;;;;;;;;17.38;41.93;98850.41;10326498;28;873;-71
2023/12/01 19:00:42;;;;;;;;;;;;;;;17.37;42.13;98849.56;10325670;28;989;-71
2023/12/01 19:05:37;;;;;;;;;;;;;;;17.38;42.21;98861.78;10325673;28;1894;-71
2023/12/01 19:10:33;;;;;;;;;;;;;;;17.39;42.20;98860.84;10325616;28;797;-71
2023/12/01 19:15:29;;;;;;;;;;;;;;;17.41;42.05;98852.88;10325528;28;870;-70
2023/12/01 19:20:25;;;;;;;;;;;;;;;17.39;42.11;98860.00;10325651;28;838;-70
2023/12/01 19:25:21;;;;;;;;;;;;;;;17.41;41.90;98863.41;10324894;28;1961;-71
2023/12/01 19:30:17;;;;;;;;;;;;;;;17.44;42.00;98858.78;10325752;28;780;-71
2023/12/01 19:35:13;;;;;;;;;;;;;;;17.41;42.09;98852.88;10324492;28;1367;-71
2023/12/01 19:40:09;;;;;;;;;;;;;;;17.42;42.05;98854.56;10326229;28;909;-71
2023/12/01 19:45:04;;;;;;;;;;;;;;;17.41;42.12;98861.59;10332700;28;1906;-71
2023/12/01 19:50:00;;;;;;;;;;;;;;;17.42;41.98;98858.06;10333099;28;806;-71
2023/12/01 19:54:56;;;;;;;;;;;;;;;17.42;42.14;98865.09;10332800;28;898;-71
2023/12/01 19:59:52;;;;;;;;;;;;;;;17.42;42.08;98870.34;10333121;28;873;-71
2023/12/01 20:04:48;;;;;;;;;;;;;;;17.44;42.15;98866.69;10332418;28;1905;-70
2023/12/01 20:09:44;;;;;;;;;;;;;;;17.43;42.00;98872.91;10332881;28;924;-71
2023/12/01 20:14:40;;;;;;;;;;;;;;;17.43;42.09;98874.72;10332087;28;755;-71
2023/12/01 20:19:37;;;;;;;;;;;;;;;17.42;41.89;98873.88;10333044;28;778;-71
2023/12/01 20:24:33;;;;;;;;;;;;;;;17.41;42.16;98864.25;10332309;28;1890;-71
2023/12/01 20:29:29;;;;;;;;;;;;;;;17.44;42.03;98860.59;10332096;28;950;-71
2023/12/01 20:34:25;;;;;;;;;;;;;;;17.42;42.25;98859.81;10331229;28;1219;-70
2023/12/01 20:39:22;;;;;;;;;;;;;;;17.40;42.17;98866.97;10329339;28;802;-71
2023/12/01 20:44:17;;;;;;;;;;;;;;;17.37;42.29;98869.75;10328384;28;1903;-71
2023/12/01 20:49:14;;;;;;;;;;;;;;;17.37;42.27;98869.75;10328247;28;782;-71
2023/12/01 20:54:11;;;;;;;;;;;;;;;17.37;42.06;98873.28;10327524;28;818;-71
2023/12/01 20:59:07;;;;;;;;;;;;;;;17.34;42.15;98877.84;10327861;28;829;-71
2023/12/01 21:04:03;;;;;;;;;;;;;;;17.31;42.38;98878.84;10328197;28;1893;-71
2023/12/01 21:08:59;;;;;;;;;;;;;;;17.30;42.23;98878.00;10327758;28;778;-71
2023/12/01 21:13:55;;;;;;;;;;;;;;;17.28;42.34;98873.75;10327725;28;950;-70
2023/12/01 21:18:50;;;;;;;;;;;;;;;17.28;42.25;98871.97;10327886;28;878;-71
2023/12/01 21:23:46;;;;;;;;;;;;;;;17.29;42.30;98872.81;10326698;28;1902;-70
2023/12/01 21:28:42;;;;;;;;;;;;;;;17.23;42.28;98879.28;10327188;28;857;-70
2023/12/01 21:33:38;;;;;;;;;;;;;;;17.25;42.35;98873.94;10289504;28;1096291;-70
2023/12/01 21:38:34;;;;;;;;;;;;;;;17.22;42.42;98874.94;10329064;28;905;-70
2023/12/01 21:43:30;;;;;;;;;;;;;;;17.18;42.37;98875.19;10329603;28;1989;-70
2023/12/01 21:48:26;;;;;;;;;;;;;;;17.13;42.68;98879.88;10327928;28;838;-70
2023/12/01 21:53:22;;;;;;;;;;;;;;;17.11;42.83;98887.88;10328298;28;862;-70
2023/12/01 21:58:18;;;;;;;;;;;;;;;17.10;42.58;98891.41;10328820;28;795;-71
2023/12/01 22:03:15;;;;;;;;;;;;;;;17.04;42.75;98900.50;10327054;28;1959;-71
2023/12/01 22:08:11;;;;;;;;;;;;;;;17.00;42.80;98898.09;10327650;28;861;-71
2023/12/01 22:13:07;;;;;;;;;;;;;;;16.99;42.98;98899.03;10327539;28;979;-70
2023/12/01 22:18:03;;;;;;;;;;;;;;;16.99;43.05;98901.69;10327363;28;870;-70
2023/12/01 22:22:59;;;;;;;;;;;;;;;16.96;43.00;98900.06;10326496;28;1893;-70
2023/12/01 22:27:55;;;;;;;;;;;;;;;16.90;43.21;98905.66;10326891;28;842;-70
2023/12/01 22:32:51;;;;;;;;;;;;;;;16.95;42.93;98902.75;10326580;28;1200;-70
2023/12/01 22:37:47;;;;;;;;;;;;;;;16.92;43.01;98902.94;10327437;28;881;-70
2023/12/01 22:42:43;;;;;;;;;;;;;;;16.86;42.96;98896.22;10326296;28;1973;-71
2023/12/01 22:47:38;;;;;;;;;;;;;;;16.87;42.88;98897.91;10326229;28;822;-70
2023/12/01 22:52:34;;;;;;;;;;;;;;;16.86;43.10;98902.31;10326155;28;766;-70
2023/12/01 22:57:31;;;;;;;;;;;;;;;16.84;43.19;98900.69;10325973;28;861;-70
2023/12/01 23:02:26;;;;;;;;;;;;;;;16.87;43.06;98900.53;10325862;28;1909;-70
2023/12/01 23:07:22;;;;;;;;;;;;;;;16.85;43.11;98895.38;10326014;28;891;-70
2023/12/01 23:12:18;;;;;;;;;;;;;;;16.82;42.97;98892.91;10325881;28;929;-70
2023/12/01 23:17:14;;;;;;;;;;;;;;;16.86;43.03;98894.41;10325951;28;853;-71
2023/12/01 23:22:10;;;;;;;;;;;;;;;16.84;42.93;98901.53;10325322;28;1902;-71
2023/12/01 23:27:06;;;;;;;;;;;;;;;16.84;42.92;98891.00;10326334;28;869;-71
2023/12/01 23:32:02;;;;;;;;;;;;;;;16.86;43.02;98896.22;10325084;28;1083;-71
2023/12/01 23:36:58;;;;;;;;;;;;;;;16.83;43.08;98902.47;10324680;28;1341;-70
2023/12/01 23:41:53;;;;;;;;;;;;;;;16.80;42.96;98900.03;10324962;28;1971;-71
2023/12/01 23:46:49;;;;;;;;;;;;;;;16.81;43.23;98903.50;10325760;28;981;-71
2023/12/01 23:51:45;;;;;;;;;;;;;;;16.81;43.07;98906.97;10325240;28;876;-70
2023/12/01 23:56:41;;;;;;;;;;;;;;;16.75;43.16;98907.28;10324813;28;818;-69
